createdAt,value
2022-11-16T00:02:21.834Z,94521.81
2022-11-16T00:04:48.354Z,94519.94
2022-11-16T00:07:14.871Z,94507.47
2022-11-16T00:09:41.370Z,94523.31
2022-11-16T00:12:07.863Z,94521.00
2022-11-16T00:14:35.870Z,94541.19
2022-11-16T00:17:03.663Z,94530.03
2022-11-16T00:19:30.407Z,94540.00
2022-11-16T00:21:56.912Z,94547.38
2022-11-16T00:24:23.934Z,94528.72
2022-11-16T00:26:53.768Z,94540.75
2022-11-16T00:29:24.915Z,94538.91
2022-11-16T00:31:52.667Z,94535.25
2022-11-16T00:34:19.930Z,94534.88
2022-11-16T00:36:47.014Z,94541.78
2022-11-16T00:39:15.005Z,94539.75
2022-11-16T00:41:42.360Z,94534.03
2022-11-16T00:44:09.689Z,94536.59
2022-11-16T00:46:36.153Z,94542.09
2022-11-16T00:49:03.983Z,94545.75
2022-11-16T00:51:30.431Z,94551.72
2022-11-16T00:53:56.972Z,94550.50
2022-11-16T00:56:23.744Z,94547.66
2022-11-16T00:58:50.305Z,94562.66
2022-11-16T01:01:17.182Z,94575.84
2022-11-16T01:03:43.722Z,94570.66
2022-11-16T01:06:15.053Z,94567.19
2022-11-16T01:08:43.009Z,94575.50
2022-11-16T01:11:13.830Z,94564.81
2022-11-16T01:13:40.288Z,94569.50
2022-11-16T01:16:06.859Z,94566.75
2022-11-16T01:18:33.543Z,94578.31
2022-11-16T01:21:00.224Z,94569.50
2022-11-16T01:23:26.669Z,94575.84
2022-11-16T01:25:57.647Z,94579.09
2022-11-16T01:28:24.082Z,94586.22
2022-11-16T01:30:50.546Z,94595.34
2022-11-16T01:33:17.049Z,94584.34
2022-11-16T01:35:43.919Z,94588.75
2022-11-16T01:38:10.379Z,94583.44
2022-11-16T01:40:38.004Z,94571.25
2022-11-16T01:43:16.812Z,94576.91
2022-11-16T01:45:44.586Z,94576.72
2022-11-16T01:48:16.058Z,94584.47
2022-11-16T01:50:44.625Z,94580.13
2022-11-16T01:53:13.355Z,94578.84
2022-11-16T01:55:43.167Z,94585.41
2022-11-16T01:58:17.463Z,94580.91
2022-11-16T02:00:43.985Z,94572.00
2022-11-16T02:03:10.571Z,94577.22
2022-11-16T02:06:00.826Z,94580.13
2022-11-16T02:08:39.485Z,94580.97
2022-11-16T02:11:40.318Z,94587.88
2022-11-16T02:14:29.540Z,94582.81
2022-11-16T02:17:12.071Z,94582.59
2022-11-16T02:19:41.270Z,94582.97
2022-11-16T02:22:49.013Z,94581.97
2022-11-16T02:25:49.962Z,94581.56
2022-11-16T02:28:32.953Z,94578.16
2022-11-16T02:31:05.399Z,94575.38
2022-11-16T02:33:38.914Z,94583.41
2022-11-16T02:36:11.923Z,94578.94
2022-11-16T02:38:45.036Z,94579.34
2022-11-16T02:41:19.717Z,94586.44
2022-11-16T02:43:55.276Z,94588.59
2022-11-16T02:46:30.803Z,94587.75
2022-11-16T02:49:02.918Z,94582.00
2022-11-16T02:51:31.080Z,94575.88
2022-11-16T02:54:23.860Z,94582.38
2022-11-16T02:56:50.243Z,94577.88
2022-11-16T02:59:17.867Z,94567.00
2022-11-16T03:01:59.531Z,94566.19
2022-11-16T03:04:37.584Z,94561.22
2022-11-16T03:07:08.813Z,94554.34
2022-11-16T03:09:38.677Z,94549.19
2022-11-16T03:12:11.371Z,94552.69
2022-11-16T03:14:49.763Z,94552.84
2022-11-16T03:17:25.635Z,94556.91
2022-11-16T03:20:01.413Z,94552.09
2022-11-16T03:22:39.541Z,94550.38
2022-11-16T03:25:08.641Z,94546.66
2022-11-16T03:27:54.729Z,94540.06
2022-11-16T03:30:24.717Z,94534.97
2022-11-16T03:32:54.842Z,94527.41
2022-11-16T03:35:49.938Z,94526.19
2022-11-16T03:38:19.937Z,94519.28
2022-11-16T03:40:47.968Z,94512.97
2022-11-16T03:43:18.025Z,94515.16
2022-11-16T03:45:46.576Z,94519.84
2022-11-16T03:48:13.324Z,94516.78
2022-11-16T03:50:42.537Z,94514.22
2022-11-16T03:53:09.769Z,94512.00
2022-11-16T03:55:36.227Z,94508.75
2022-11-16T03:58:02.722Z,94501.13
2022-11-16T04:00:29.213Z,94505.97
2022-11-16T04:02:55.942Z,94513.22
2022-11-16T04:05:23.116Z,94510.00
2022-11-16T04:07:49.572Z,94507.78
2022-11-16T04:10:16.040Z,94498.28
2022-11-16T04:13:03.811Z,94516.22
2022-11-16T04:15:30.281Z,94512.88
2022-11-16T04:17:56.722Z,94509.66
2022-11-16T04:20:23.182Z,94507.19
2022-11-16T04:22:57.810Z,94512.47
2022-11-16T04:25:30.564Z,94511.88
2022-11-16T04:27:58.167Z,94508.44
2022-11-16T04:30:24.800Z,94514.31
2022-11-16T04:32:51.360Z,94510.84
2022-11-16T04:35:17.866Z,94515.00
2022-11-16T04:37:44.305Z,94517.19
2022-11-16T04:40:11.321Z,94517.72
2022-11-16T04:42:37.771Z,94521.28
2022-11-16T04:45:04.845Z,94520.13
2022-11-16T04:47:31.415Z,94525.16
2022-11-16T04:49:57.885Z,94524.28
2022-11-16T04:52:24.610Z,94529.88
2022-11-16T04:54:51.647Z,94524.16
2022-11-16T04:57:18.125Z,94524.63
2022-11-16T04:59:44.572Z,94529.13
2022-11-16T05:02:11.058Z,94528.91
2022-11-16T05:04:40.017Z,94519.44
2022-11-16T05:07:07.791Z,94527.63
2022-11-16T05:09:34.248Z,94521.06
2022-11-16T05:12:00.681Z,94530.59
2022-11-16T05:14:27.173Z,94523.63
2022-11-16T05:16:53.629Z,94524.38
2022-11-16T05:19:20.088Z,94528.06
2022-11-16T05:21:46.906Z,94525.09
2022-11-16T05:24:13.418Z,94531.78
2022-11-16T05:26:39.884Z,94531.13
2022-11-16T05:29:06.333Z,94527.69
2022-11-16T05:31:37.583Z,94532.28
2022-11-16T05:34:06.766Z,94531.19
2022-11-16T05:36:33.201Z,94519.25
2022-11-16T05:38:59.688Z,94526.53
2022-11-16T05:41:26.219Z,94517.47
2022-11-16T05:43:54.195Z,94523.16
2022-11-16T05:46:20.741Z,94512.97
2022-11-16T05:48:47.409Z,94520.59
2022-11-16T05:51:13.965Z,94514.44
2022-11-16T05:53:40.803Z,94513.09
2022-11-16T05:56:07.805Z,94514.69
2022-11-16T05:58:34.593Z,94514.94
2022-11-16T06:01:01.369Z,94512.88
2022-11-16T06:03:29.888Z,94517.81
2022-11-16T06:05:57.119Z,94524.69
2022-11-16T06:08:23.848Z,94521.41
2022-11-16T06:10:50.427Z,94517.44
2022-11-16T06:13:16.879Z,94517.84
2022-11-16T06:18:24.185Z,94517.81
2022-11-16T06:20:50.756Z,94509.53
2022-11-16T06:23:17.453Z,94518.53
2022-11-16T06:25:43.950Z,94514.25
2022-11-16T06:28:11.188Z,94516.78
2022-11-16T06:30:39.138Z,94516.78
2022-11-16T06:33:06.131Z,94513.47
2022-11-16T06:35:33.136Z,94519.69
2022-11-16T06:37:59.602Z,94518.22
2022-11-16T06:40:26.101Z,94513.13
2022-11-16T06:42:52.561Z,94519.44
2022-11-16T06:45:19.092Z,94517.28
2022-11-16T06:47:45.537Z,94522.94
2022-11-16T06:50:12.014Z,94518.41
2022-11-16T06:52:38.465Z,94521.63
2022-11-16T06:55:05.293Z,94530.25
2022-11-16T06:57:32.846Z,94532.25
2022-11-16T06:59:59.308Z,94535.13
2022-11-16T07:02:25.846Z,94530.38
2022-11-16T07:04:52.295Z,94527.88
2022-11-16T07:07:18.792Z,94532.91
2022-11-16T07:09:45.287Z,94531.28
2022-11-16T07:12:11.748Z,94527.63
2022-11-16T07:14:38.214Z,94533.94
2022-11-16T07:17:09.249Z,94537.09
2022-11-16T07:19:36.246Z,94534.28
2022-11-16T07:22:02.718Z,94539.88
2022-11-16T07:24:29.169Z,94539.88
2022-11-16T07:26:55.644Z,94549.91
2022-11-16T07:29:22.096Z,94552.19
2022-11-16T07:31:48.528Z,94549.03
2022-11-16T07:34:14.969Z,94550.13
2022-11-16T07:36:41.502Z,94544.94
2022-11-16T07:39:08.134Z,94547.56
2022-11-16T07:41:35.018Z,94550.88
2022-11-16T07:44:01.505Z,94552.53
2022-11-16T07:46:45.817Z,94554.91
2022-11-16T07:49:15.215Z,94557.06
2022-11-16T07:51:41.959Z,94551.16
2022-11-16T07:54:11.900Z,94550.84
2022-11-16T07:56:38.400Z,94557.94
2022-11-16T07:59:05.000Z,94556.34
2022-11-16T08:01:31.467Z,94561.09
2022-11-16T08:03:57.952Z,94565.69
2022-11-16T08:06:27.532Z,94560.59
2022-11-16T08:08:58.279Z,94566.50
2022-11-16T08:11:25.949Z,94560.91
2022-11-16T08:13:52.428Z,94563.00
2022-11-16T08:16:22.006Z,94571.22
2022-11-16T08:18:48.724Z,94576.88
2022-11-16T08:21:17.669Z,94565.53
2022-11-16T08:23:44.642Z,94569.03
2022-11-16T08:26:14.720Z,94564.25
2022-11-16T08:28:42.410Z,94566.25
2022-11-16T08:31:14.339Z,94575.06
2022-11-16T08:33:41.275Z,94572.13
2022-11-16T08:36:13.994Z,94575.75
2022-11-16T08:38:41.068Z,94569.19
2022-11-16T08:41:07.702Z,94565.47
2022-11-16T08:43:34.751Z,94569.16
2022-11-16T08:46:01.299Z,94562.25
2022-11-16T08:48:27.868Z,94560.44
2022-11-16T08:51:16.387Z,94571.00
2022-11-16T08:53:40.749Z,94574.78
2022-11-16T08:56:11.800Z,94567.53
2022-11-16T08:58:39.196Z,94568.47
2022-11-16T09:01:11.072Z,94568.19
2022-11-16T09:03:38.436Z,94568.50
2022-11-16T09:06:06.920Z,94556.66
2022-11-16T09:08:33.902Z,94564.81
2022-11-16T09:11:04.525Z,94559.63
2022-11-16T09:13:31.081Z,94559.88
2022-11-16T09:15:59.124Z,94555.97
2022-11-16T09:18:27.213Z,94557.28
2022-11-16T09:20:54.619Z,94556.88
2022-11-16T09:23:25.298Z,94562.00
2022-11-16T09:25:52.836Z,94560.06
2022-11-16T09:28:22.121Z,94554.13
2022-11-16T09:30:50.945Z,94557.34
2022-11-16T09:33:18.135Z,94560.34
2022-11-16T09:35:44.801Z,94560.25
2022-11-16T09:38:13.640Z,94543.69
2022-11-16T09:40:47.203Z,94552.91
2022-11-16T09:43:27.498Z,94555.06
2022-11-16T09:46:16.112Z,94569.00
2022-11-16T09:48:43.293Z,94557.53
2022-11-16T09:51:15.104Z,94563.50
2022-11-16T09:53:54.000Z,94565.16
2022-11-16T09:56:23.532Z,94578.81
2022-11-16T09:59:00.889Z,94573.56
2022-11-16T10:01:55.188Z,94571.84
2022-11-16T10:04:43.380Z,94580.03
2022-11-16T10:07:19.817Z,94575.38
2022-11-16T10:09:47.347Z,94577.31
2022-11-16T10:12:19.815Z,94575.13
2022-11-16T10:15:01.637Z,94568.47
2022-11-16T10:17:50.764Z,94573.31
2022-11-16T10:20:49.531Z,94555.53
2022-11-16T10:23:25.544Z,94563.78
2022-11-16T10:26:01.369Z,94554.03
2022-11-16T10:28:48.181Z,94552.00
2022-11-16T10:31:20.691Z,94558.94
2022-11-16T10:33:53.742Z,94554.88
2022-11-16T10:36:24.937Z,94560.09
2022-11-16T10:38:51.619Z,94563.13
2022-11-16T10:41:29.638Z,94556.44
2022-11-16T10:43:58.980Z,94551.44
2022-11-16T10:46:35.455Z,94548.25
2022-11-16T10:49:12.325Z,94544.97
2022-11-16T10:51:38.903Z,94549.91
2022-11-16T10:54:13.120Z,94553.41
2022-11-16T10:56:44.020Z,94550.25
2022-11-16T10:59:12.968Z,94541.72
2022-11-16T11:01:47.171Z,94542.25
2022-11-16T11:04:15.852Z,94536.69
2022-11-16T11:06:43.381Z,94527.47
2022-11-16T11:09:30.795Z,94526.13
2022-11-16T11:12:21.603Z,94522.25
2022-11-16T11:14:59.985Z,94529.22
2022-11-16T11:17:27.470Z,94529.78
2022-11-16T11:19:58.971Z,94520.47
2022-11-16T11:22:26.444Z,94515.16
2022-11-16T11:24:53.881Z,94505.31
2022-11-16T11:27:32.750Z,94510.06
2022-11-16T11:30:00.198Z,94493.81
2022-11-16T11:32:39.971Z,94491.69
2022-11-16T11:35:21.663Z,94477.84
2022-11-16T11:37:54.481Z,94466.81
2022-11-16T11:40:25.358Z,94471.97
2022-11-16T11:42:58.554Z,94469.75
2022-11-16T11:45:34.205Z,94474.78
2022-11-16T11:48:16.246Z,94477.97
2022-11-16T11:50:54.148Z,94473.53
2022-11-16T11:53:39.350Z,94473.44
2022-11-16T11:56:06.310Z,94472.66
2022-11-16T11:58:38.461Z,94445.06
2022-11-16T12:01:45.129Z,94446.31
2022-11-16T12:04:48.980Z,94430.88
2022-11-16T12:07:36.918Z,94439.66
2022-11-16T12:10:30.664Z,94438.13
2022-11-16T12:13:19.705Z,94440.44
2022-11-16T12:15:57.543Z,94439.94
2022-11-16T12:18:35.879Z,94428.63
2022-11-16T12:21:12.658Z,94425.56
2022-11-16T12:24:05.834Z,94427.19
2022-11-16T12:26:52.482Z,94427.84
2022-11-16T12:29:30.528Z,94423.56
2022-11-16T12:32:36.754Z,94413.91
2022-11-16T12:35:14.922Z,94409.63
2022-11-16T12:37:54.875Z,94408.59
2022-11-16T12:40:58.455Z,94413.53
2022-11-16T12:43:51.204Z,94411.34
2022-11-16T12:46:26.405Z,94418.38
2022-11-16T12:49:12.862Z,94400.19
2022-11-16T12:52:02.543Z,94402.81
2022-11-16T12:55:04.318Z,94397.16
2022-11-16T12:57:36.869Z,94390.22
2022-11-16T13:00:14.361Z,94393.03
2022-11-16T13:03:05.072Z,94382.63
2022-11-16T13:06:04.487Z,94382.19
2022-11-16T13:08:40.703Z,94379.53
2022-11-16T13:11:23.652Z,94367.44
2022-11-16T13:13:57.975Z,94365.47
2022-11-16T13:16:25.044Z,94371.50
2022-11-16T13:18:53.699Z,94363.47
2022-11-16T13:21:51.129Z,94354.75
2022-11-16T13:24:46.629Z,94356.34
2022-11-16T13:27:19.256Z,94353.34
2022-11-16T13:30:25.952Z,94358.75
2022-11-16T13:33:12.435Z,94344.22
2022-11-16T13:35:39.338Z,94342.94
2022-11-16T13:38:12.414Z,94343.06
2022-11-16T13:40:39.762Z,94339.72
2022-11-16T13:43:11.911Z,94336.94
2022-11-16T13:45:44.355Z,94332.59
2022-11-16T13:48:32.798Z,94330.06
2022-11-16T13:51:22.294Z,94341.47
2022-11-16T13:54:43.218Z,94337.00
2022-11-16T13:56:49.751Z,94326.56
2022-11-16T13:59:24.843Z,94329.78
2022-11-16T14:02:00.329Z,94330.28
2022-11-16T14:04:39.030Z,94319.28
2022-11-16T14:07:41.534Z,94318.56
2022-11-16T14:10:08.925Z,94328.78
2022-11-16T14:12:38.118Z,94324.88
2022-11-16T14:15:15.759Z,94321.53
2022-11-16T14:17:56.359Z,94304.19
2022-11-16T14:20:32.451Z,94304.53
2022-11-16T14:23:20.505Z,94295.84
2022-11-16T14:25:53.900Z,94292.41
2022-11-16T14:28:32.206Z,94287.03
2022-11-16T14:31:21.061Z,94298.75
2022-11-16T14:33:54.983Z,94290.88
2022-11-16T14:36:38.785Z,94305.53
2022-11-16T14:39:34.582Z,94294.31
2022-11-16T14:42:18.300Z,94297.28
2022-11-16T14:44:45.183Z,94295.41
2022-11-16T14:47:26.796Z,94287.03
2022-11-16T14:49:54.854Z,94273.97
2022-11-16T14:52:38.190Z,94274.00
2022-11-16T14:55:10.270Z,94273.41
2022-11-16T14:57:36.707Z,94269.25
2022-11-16T15:00:19.034Z,94269.50
2022-11-16T15:02:51.870Z,94273.28
2022-11-16T15:05:22.665Z,94269.88
2022-11-16T15:07:52.976Z,94283.63
2022-11-16T15:10:25.426Z,94284.91
2022-11-16T15:12:54.790Z,94290.28
2022-11-16T15:15:31.509Z,94291.59
2022-11-16T15:18:07.978Z,94292.31
2022-11-16T15:20:37.783Z,94286.75
2022-11-16T15:23:12.986Z,94286.66
2022-11-16T15:25:52.903Z,94294.13
2022-11-16T15:28:30.422Z,94290.88
2022-11-16T15:31:00.375Z,94292.66
2022-11-16T15:33:29.582Z,94280.81
2022-11-16T15:35:58.119Z,94270.44
2022-11-16T15:38:32.743Z,94263.44
2022-11-16T15:41:02.739Z,94260.72
2022-11-16T15:43:45.164Z,94265.53
2022-11-16T15:46:24.745Z,94259.25
2022-11-16T15:48:52.849Z,94260.59
2022-11-16T15:51:22.608Z,94257.97
2022-11-16T15:53:51.694Z,94258.78
2022-11-16T15:56:28.713Z,94239.78
2022-11-16T15:58:58.722Z,94239.47
2022-11-16T16:01:25.852Z,94246.88
2022-11-16T16:04:07.112Z,94243.00
2022-11-16T16:06:47.236Z,94238.78
2022-11-16T16:09:42.864Z,94238.84
2022-11-16T16:12:18.790Z,94246.88
2022-11-16T16:14:46.945Z,94237.22
2022-11-16T16:17:26.815Z,94239.66
2022-11-16T16:19:58.912Z,94242.13
2022-11-16T16:22:25.345Z,94242.03
2022-11-16T16:24:52.351Z,94240.94
2022-11-16T16:27:24.858Z,94239.44
2022-11-16T16:29:55.954Z,94237.94
2022-11-16T16:32:28.465Z,94239.56
2022-11-16T16:34:57.796Z,94243.59
2022-11-16T16:37:27.236Z,94251.28
2022-11-16T16:39:53.681Z,94247.69
2022-11-16T16:42:20.169Z,94243.09
2022-11-16T16:44:47.614Z,94246.22
2022-11-16T16:47:16.069Z,94238.72
2022-11-16T16:49:42.643Z,94244.47
2022-11-16T16:52:12.429Z,94235.94
2022-11-16T16:54:40.110Z,94229.59
2022-11-16T16:57:11.587Z,94233.94
2022-11-16T16:59:38.076Z,94235.16
2022-11-16T17:02:04.505Z,94231.91
2022-11-16T17:04:32.548Z,94234.22
2022-11-16T17:06:59.038Z,94224.03
2022-11-16T17:09:25.510Z,94220.81
2022-11-16T17:11:51.966Z,94221.34
2022-11-16T17:14:18.459Z,94217.06
2022-11-16T17:16:44.939Z,94218.66
2022-11-16T17:19:11.443Z,94214.78
2022-11-16T17:21:37.894Z,94217.25
2022-11-16T17:24:04.887Z,94210.94
2022-11-16T17:26:31.361Z,94210.00
2022-11-16T17:28:58.234Z,94202.06
2022-11-16T17:31:26.158Z,94201.22
2022-11-16T17:33:52.614Z,94196.97
2022-11-16T17:36:19.732Z,94196.59
2022-11-16T17:38:46.613Z,94189.88
2022-11-16T17:41:16.201Z,94201.59
2022-11-16T17:43:44.980Z,94199.53
2022-11-16T17:46:14.724Z,94205.94
2022-11-16T17:48:43.065Z,94203.72
2022-11-16T17:51:11.683Z,94195.34
2022-11-16T17:53:38.915Z,94186.75
2022-11-16T17:56:07.129Z,94178.47
2022-11-16T17:58:34.330Z,94168.03
2022-11-16T18:01:01.019Z,94154.47
2022-11-16T18:03:27.594Z,94142.81
2022-11-16T18:06:13.520Z,94138.75
2022-11-16T18:08:41.569Z,94136.34
2022-11-16T18:11:16.986Z,94133.34
2022-11-16T18:13:43.759Z,94133.53
2022-11-16T18:16:19.003Z,94132.16
2022-11-16T18:18:47.165Z,94124.59
2022-11-16T18:21:20.449Z,94134.72
2022-11-16T18:23:47.573Z,94135.91
2022-11-16T18:26:19.983Z,94139.13
2022-11-16T18:28:51.243Z,94137.72
2022-11-16T18:31:20.934Z,94132.44
2022-11-16T18:33:47.950Z,94124.28
2022-11-16T18:36:15.066Z,94137.94
2022-11-16T18:38:41.561Z,94123.63
2022-11-16T18:41:10.951Z,94120.03
2022-11-16T18:44:01.018Z,94123.72
2022-11-16T18:46:30.289Z,94111.09
2022-11-16T18:48:57.010Z,94107.00
2022-11-16T18:51:25.622Z,94108.03
2022-11-16T18:53:52.164Z,94107.19
2022-11-16T18:56:19.476Z,94091.44
2022-11-16T18:58:50.968Z,94086.97
2022-11-16T19:01:23.842Z,94084.56
2022-11-16T19:03:52.122Z,94087.72
2022-11-16T19:06:19.893Z,94071.34
2022-11-16T19:08:55.017Z,94073.19
2022-11-16T19:11:23.199Z,94071.41
2022-11-16T19:13:54.810Z,94084.09
2022-11-16T19:16:22.068Z,94091.00
2022-11-16T19:18:48.533Z,94094.97
2022-11-16T19:21:16.761Z,94072.78
2022-11-16T19:23:45.573Z,94063.78
2022-11-16T19:26:14.200Z,94059.94
2022-11-16T19:28:42.808Z,94066.19
2022-11-16T19:31:13.678Z,94071.63
2022-11-16T19:33:41.059Z,94068.97
2022-11-16T19:36:18.158Z,94057.16
2022-11-16T19:38:56.469Z,94045.34
2022-11-16T19:41:24.597Z,94027.47
2022-11-16T19:43:53.183Z,94022.78
2022-11-16T19:46:19.797Z,94038.03
2022-11-16T19:48:46.286Z,94034.16
2022-11-16T19:51:15.923Z,94027.78
2022-11-16T19:53:42.447Z,94025.72
2022-11-16T19:56:11.999Z,94023.66
2022-11-16T19:58:38.682Z,94024.81
2022-11-16T20:01:08.187Z,94025.41
2022-11-16T20:03:35.079Z,94030.69
2022-11-16T20:06:29.657Z,94009.56
2022-11-16T20:08:58.854Z,94000.63
2022-11-16T20:11:27.763Z,94017.41
2022-11-16T20:13:56.516Z,94029.81
2022-11-16T20:16:31.676Z,94037.25
2022-11-16T20:19:02.044Z,94037.44
2022-11-16T20:21:31.008Z,94049.41
2022-11-16T20:24:01.671Z,94051.66
2022-11-16T20:26:34.645Z,94052.63
2022-11-16T20:29:01.355Z,94050.97
2022-11-16T20:31:30.578Z,94047.31
2022-11-16T20:34:02.840Z,94043.16
2022-11-16T20:36:31.465Z,94055.91
2022-11-16T20:38:59.396Z,94064.59
2022-11-16T20:41:28.493Z,94067.50
2022-11-16T20:43:57.649Z,94063.41
2022-11-16T20:46:27.079Z,94055.50
2022-11-16T20:48:54.339Z,94065.91
2022-11-16T20:51:21.036Z,94072.72
2022-11-16T20:53:49.600Z,94054.47
2022-11-16T20:56:18.112Z,94057.59
2022-11-16T20:58:45.890Z,94064.28
2022-11-16T21:01:15.754Z,94071.59
2022-11-16T21:03:42.344Z,94079.56
2022-11-16T21:06:08.832Z,94081.16
2022-11-16T21:08:38.342Z,94091.50
2022-11-16T21:11:12.610Z,94102.31
2022-11-16T21:13:39.209Z,94117.81
2022-11-16T21:16:09.111Z,94105.88
2022-11-16T21:18:35.563Z,94109.81
2022-11-16T21:21:05.439Z,94114.16
2022-11-16T21:23:35.231Z,94117.22
2022-11-16T21:26:03.718Z,94107.44
2022-11-16T21:28:30.159Z,94103.94
2022-11-16T21:31:03.559Z,94106.16
2022-11-16T21:33:30.533Z,94128.41
2022-11-16T21:35:56.985Z,94129.00
2022-11-16T21:38:25.111Z,94113.91
2022-11-16T21:40:51.882Z,94120.66
2022-11-16T21:43:18.431Z,94112.19
2022-11-16T21:45:47.370Z,94114.84
2022-11-16T21:48:13.976Z,94117.50
2022-11-16T21:50:41.919Z,94121.31
2022-11-16T21:53:08.922Z,94117.50
2022-11-16T21:55:36.066Z,94104.59
2022-11-16T21:58:02.854Z,94111.16
2022-11-16T22:00:29.872Z,94112.13
2022-11-16T22:02:56.335Z,94098.72
2022-11-16T22:05:22.837Z,94103.44
2022-11-16T22:07:49.285Z,94105.06
2022-11-16T22:10:15.908Z,94109.47
2022-11-16T22:12:42.355Z,94104.94
2022-11-16T22:15:09.112Z,94106.97
2022-11-16T22:17:35.610Z,94105.06
2022-11-16T22:20:02.082Z,94090.72
2022-11-16T22:22:28.536Z,94104.22
2022-11-16T22:24:55.001Z,94100.22
2022-11-16T22:27:21.517Z,94101.13
2022-11-16T22:29:47.940Z,94112.69
2022-11-16T22:32:14.386Z,94132.22
2022-11-16T22:34:40.878Z,94127.69
2022-11-16T22:37:07.363Z,94133.19
2022-11-16T22:39:33.886Z,94099.50
2022-11-16T22:42:00.408Z,94088.78
2022-11-16T22:44:26.836Z,94102.91
2022-11-16T22:46:53.298Z,94092.16
2022-11-16T22:49:19.777Z,94094.41
2022-11-16T22:51:46.218Z,94097.31
2022-11-16T22:54:13.049Z,94101.84
2022-11-16T22:56:39.488Z,94090.44
2022-11-16T22:59:06.074Z,94112.28
2022-11-16T23:01:32.851Z,94104.41
2022-11-16T23:03:59.433Z,94104.22
2022-11-16T23:06:26.130Z,94117.22
2022-11-16T23:08:52.598Z,94109.19
2022-11-16T23:11:24.993Z,94123.84
2022-11-16T23:13:53.202Z,94127.50
2022-11-16T23:16:19.659Z,94145.66
2022-11-16T23:18:46.128Z,94141.78
2022-11-16T23:21:12.586Z,94132.63
2022-11-16T23:23:39.051Z,94134.69
2022-11-16T23:26:14.493Z,94132.53
2022-11-16T23:28:40.966Z,94120.16
2022-11-16T23:31:07.474Z,94115.19
2022-11-16T23:33:34.289Z,94114.25
2022-11-16T23:36:00.959Z,94113.81
2022-11-16T23:38:27.404Z,94123.06
2022-11-16T23:40:53.866Z,94121.44
2022-11-16T23:43:20.418Z,94118.72
2022-11-16T23:45:47.162Z,94120.75
2022-11-16T23:48:16.306Z,94099.16
2022-11-16T23:50:44.785Z,94081.31
2022-11-16T23:53:12.226Z,94069.13
2022-11-16T23:55:40.084Z,94047.09
2022-11-16T23:58:12.408Z,94038.97
